• Join FlightAware (Why Join?)
  • Login
  • US Flag 
10:59AM EDT


 

Airport Tracker/Info


-or-


 

Live Flight TrackerFlight Track Log ✈ OPT330 ✈ 06-May-2014 ✈ KHPN - KITH

Flight Track Log - Related Links

Times and Time Zones

All times are in EDT time to prevent confusion due to time zone crossing. See the OPT330 flight status page for this flight to view local times or setup timezone preferences in your user account.

Time Position Orientation Groundspeed Altitude Reporting Facility
EDT Latitude Longitude Course Direction KTS MPH feet Rate Location/Type
07:12AM 41.1820 -73.9270 309° West 237 273 15,500  Level FlightAware ADS-B (KSNC)
07:13AM 41.2040 -73.9976 271° West 282 325 16,000 240 Climbing FlightAware ADS-B (KSNC)
07:14AM 41.2088 -74.1069 273° West 285 328 16,000 780 Level FlightAware ADS-B (KSNC)
07:15AM 41.2111 -74.1600 273° West 288 331 17,300 2,460 Climbing FlightAware ADS-B (KSNC)
07:16AM 41.2162 -74.2818 273° West 322 371 20,000 1,440 Climbing FlightAware ADS-B (KSNC)
07:17AM 41.2457 -74.3561 307° West 334 384 20,000  Level FlightAware ADS-B (KSNC)
07:18AM 41.3367 -74.5289 305° West 320 368 20,000  Level FlightAware ADS-B (KSNC)
07:19AM 41.3558 -74.5656 305° West 318 366 20,000  Level FlightAware ADS-B (KSNC)
07:20AM 41.3958 -74.6483 305° West 327 376 20,000  Level New York Center
07:21AM 41.4467 -74.7453 305° West 327 376 20,000  Level New York Center
07:22AM 41.4975 -74.8397 306° West 322 371 20,000  Level New York Center
07:23AM 41.5483 -74.9344 306° West 317 365 20,000  Level New York Center
07:24AM 41.5969 -75.0317 304° West 317 365 20,000  Level New York Center
07:25AM 41.6456 -75.1292 304° West 317 365 20,000  Level New York Center
07:26AM 41.6961 -75.2242 305° West 317 365 20,000  Level New York Center
07:27AM 41.7464 -75.3247 304° West 317 365 20,000  Level New York Center
07:28AM 41.7950 -75.4200 304° West 317 365 20,000  Level New York Center
07:29AM 41.8431 -75.5150 304° West 317 365 20,000 -60 Level New York Center
07:30AM 41.8911 -75.6133 303° West 317 365 19,900 -900 Descending New York Center
07:31AM 41.9356 -75.7031 304° West 322 371 18,200 -1,800 Descending New York Center
07:32AM 41.9856 -75.7986 305° West 322 371 16,400 -1,920 Descending New York Center
07:33AM 42.0372 -75.9031 304° West 316 364 14,400 -1,800 Descending New York Center
07:34AM 42.0794 -75.9875 304° West 316 364 12,800 -1,740 Descending New York Center
07:35AM 42.1253 -76.0806 304° West 311 358 11,000 -1,800 Descending New York Center
07:36AM 42.1758 -76.1575 312° West 294 338 9,300 -1,680 Descending New York Center
07:37AM 42.2319 -76.2094 326° Northwest 271 312 7,700 -1,680 Descending New York Center
07:38AM 42.2917 -76.2678 324° Northwest 260 299 6,000 -1,800 Descending New York Center
07:39AM 42.3519 -76.3150 330° Northwest 247 284 4,200 -1,440 Descending New York Center
07:40AM 42.4067 -76.3447 338° Northwest 230 265 3,200 -720 Descending New York Center
07:41AM 42.4300 -76.3778 314° West 206 237 2,800 3,900 Descending New York Center
07:42AM 42.4739 -76.4181 326° Northwest 172 198 11,000 4,080 Climbing New York Center
07:43AM 42.5136 -76.4581 323° Northwest 172 198 11,000  Level New York Center
07:44AM 42.5536 -76.4953 326° Northwest 172 198 11,000  Level New York Center
07:45AM 42.5933 -76.5353 323° Northwest 172 198 11,000  Level New York Center